sensor_id;sensor_type;location;lat;lon;timestamp;pressure;altitude;pressure_sealevel;temperature;humidity
20037;BME280;10179;42.640;23.312;2023-02-02T00:01:44;93725.63;;;9.48;34.98
20037;BME280;10179;42.640;23.312;2023-02-02T00:04:21;93734.84;;;9.51;35.25
20037;BME280;10179;42.640;23.312;2023-02-02T00:06:47;93655.72;;;8.99;34.97
20037;BME280;10179;42.640;23.312;2023-02-02T00:09:15;93734.72;;;9.46;35.19
20037;BME280;10179;42.640;23.312;2023-02-02T00:11:42;93732.31;;;9.44;35.08
20037;BME280;10179;42.640;23.312;2023-02-02T00:14:08;93731.72;;;9.42;35.13
20037;BME280;10179;42.640;23.312;2023-02-02T00:16:36;93719.41;;;9.43;35.12
20037;BME280;10179;42.640;23.312;2023-02-02T00:19:12;93721.59;;;9.46;35.15
20037;BME280;10179;42.640;23.312;2023-02-02T00:21:39;93719.03;;;9.39;35.45
20037;BME280;10179;42.640;23.312;2023-02-02T00:24:06;93620.09;;;8.66;35.70
20037;BME280;10179;42.640;23.312;2023-02-02T00:26:32;93700.44;;;9.22;35.67
20037;BME280;10179;42.640;23.312;2023-02-02T00:28:58;93301.53;;;6.68;35.87
20037;BME280;10179;42.640;23.312;2023-02-02T00:31:24;93713.97;;;9.19;36.15
20037;BME280;10179;42.640;23.312;2023-02-02T00:33:49;93557.66;;;8.13;36.67
20037;BME280;10179;42.640;23.312;2023-02-02T00:36:16;93721.03;;;9.19;37.12
20037;BME280;10179;42.640;23.312;2023-02-02T00:38:42;93730.13;;;9.16;37.38
20037;BME280;10179;42.640;23.312;2023-02-02T00:41:08;93631.13;;;8.50;37.83
20037;BME280;10179;42.640;23.312;2023-02-02T00:43:34;93643.19;;;8.51;38.06
20037;BME280;10179;42.640;23.312;2023-02-02T00:45:59;93677.03;;;8.46;38.15
20037;BME280;10179;42.640;23.312;2023-02-02T00:48:24;93725.84;;;8.97;38.38
20037;BME280;10179;42.640;23.312;2023-02-02T00:50:51;93750.00;;;8.99;38.44
20037;BME280;10179;42.640;23.312;2023-02-02T00:53:17;93655.28;;;8.45;38.47
20037;BME280;10179;42.640;23.312;2023-02-02T00:55:42;93737.53;;;8.94;38.86
20037;BME280;10179;42.640;23.312;2023-02-02T00:58:08;93638.84;;;8.31;38.98
20037;BME280;10179;42.640;23.312;2023-02-02T01:00:33;93730.94;;;8.92;39.12
20037;BME280;10179;42.640;23.312;2023-02-02T01:02:58;93677.75;;;8.59;39.05
20037;BME280;10179;42.640;23.312;2023-02-02T01:05:29;93722.03;;;8.93;38.95
20037;BME280;10179;42.640;23.312;2023-02-02T01:07:55;93726.25;;;8.94;39.17
20037;BME280;10179;42.640;23.312;2023-02-02T01:10:20;93719.19;;;8.94;39.22
20037;BME280;10179;42.640;23.312;2023-02-02T01:12:46;93718.19;;;8.95;39.02
20037;BME280;10179;42.640;23.312;2023-02-02T01:15:12;93696.53;;;8.81;39.18
20037;BME280;10179;42.640;23.312;2023-02-02T01:17:38;93708.16;;;8.92;39.06
20037;BME280;10179;42.640;23.312;2023-02-02T01:20:04;93688.88;;;8.80;39.13
20037;BME280;10179;42.640;23.312;2023-02-02T01:22:30;93346.72;;;6.62;38.95
20037;BME280;10179;42.640;23.312;2023-02-02T01:24:58;93603.22;;;8.30;38.96
20037;BME280;10179;42.640;23.312;2023-02-02T01:27:24;93705.34;;;8.87;38.81
20037;BME280;10179;42.640;23.312;2023-02-02T01:29:49;93708.19;;;8.86;38.78
20037;BME280;10179;42.640;23.312;2023-02-02T01:32:15;93654.22;;;8.53;38.73
20037;BME280;10179;42.640;23.312;2023-02-02T01:34:40;93657.03;;;8.58;38.62
20037;BME280;10179;42.640;23.312;2023-02-02T01:37:08;93694.91;;;8.80;38.64
20037;BME280;10179;42.640;23.312;2023-02-02T01:39:34;93697.75;;;8.79;38.53
20037;BME280;10179;42.640;23.312;2023-02-02T01:41:59;93696.34;;;8.76;38.72
20037;BME280;10179;42.640;23.312;2023-02-02T01:47:26;93691.78;;;8.72;38.38
20037;BME280;10179;42.640;23.312;2023-02-02T01:49:54;93572.66;;;7.93;38.72
20037;BME280;10179;42.640;23.312;2023-02-02T01:52:22;93685.34;;;8.68;38.75
20037;BME280;10179;42.640;23.312;2023-02-02T01:54:52;93622.78;;;8.21;38.69
20037;BME280;10179;42.640;23.312;2023-02-02T01:59:55;93674.94;;;8.61;39.04
20037;BME280;10179;42.640;23.312;2023-02-02T02:02:21;93646.88;;;8.36;38.87
20037;BME280;10179;42.640;23.312;2023-02-02T02:04:49;93671.13;;;8.57;39.04
20037;BME280;10179;42.640;23.312;2023-02-02T02:07:15;93530.19;;;7.72;38.89
20037;BME280;10179;42.640;23.312;2023-02-02T02:09:40;93670.94;;;8.52;38.83
20037;BME280;10179;42.640;23.312;2023-02-02T02:12:10;93661.09;;;8.54;38.63
20037;BME280;10179;42.640;23.312;2023-02-02T02:14:38;93641.63;;;8.36;38.43
20037;BME280;10179;42.640;23.312;2023-02-02T02:20:12;93670.00;;;8.46;38.54
20037;BME280;10179;42.640;23.312;2023-02-02T02:23:30;93664.53;;;8.48;38.13
20037;BME280;10179;42.640;23.312;2023-02-02T02:34:54;93667.41;;;8.40;36.59
20037;BME280;10179;42.640;23.312;2023-02-02T02:42:54;93654.50;;;8.45;35.52
20037;BME280;10179;42.640;23.312;2023-02-02T02:45:21;93535.63;;;7.64;35.10
20037;BME280;10179;42.640;23.312;2023-02-02T02:47:49;93664.53;;;8.48;35.37
20037;BME280;10179;42.640;23.312;2023-02-02T02:50:14;93660.47;;;8.52;35.02
20037;BME280;10179;42.640;23.312;2023-02-02T02:52:40;93660.47;;;8.52;34.67
20037;BME280;10179;42.640;23.312;2023-02-02T02:55:08;93614.72;;;8.29;34.52
20037;BME280;10179;42.640;23.312;2023-02-02T02:57:52;93664.03;;;8.64;34.36
20037;BME280;10179;42.640;23.312;2023-02-02T03:00:44;93669.28;;;8.64;34.36
20037;BME280;10179;42.640;23.312;2023-02-02T03:06:02;93663.47;;;8.55;34.45
20037;BME280;10179;42.640;23.312;2023-02-02T03:08:39;93653.81;;;8.56;34.55
20037;BME280;10179;42.640;23.312;2023-02-02T03:11:10;93650.19;;;8.57;34.60
20037;BME280;10179;42.640;23.312;2023-02-02T03:13:37;93647.78;;;8.55;34.65
20037;BME280;10179;42.640;23.312;2023-02-02T03:16:03;93653.81;;;8.56;34.59
20037;BME280;10179;42.640;23.312;2023-02-02T03:18:30;93624.94;;;8.38;34.86
20037;BME280;10179;42.640;23.312;2023-02-02T03:20:57;93556.56;;;7.96;34.67
20037;BME280;10179;42.640;23.312;2023-02-02T03:23:22;93650.75;;;8.59;34.90
20037;BME280;10179;42.640;23.312;2023-02-02T03:25:48;93546.72;;;7.98;35.34
20037;BME280;10179;42.640;23.312;2023-02-02T03:28:14;93647.16;;;8.60;34.83
20037;BME280;10179;42.640;23.312;2023-02-02T03:30:42;93611.06;;;8.30;34.85
20037;BME280;10179;42.640;23.312;2023-02-02T03:33:08;93643.94;;;8.58;35.48
20037;BME280;10179;42.640;23.312;2023-02-02T03:35:34;93624.69;;;8.46;34.97
20037;BME280;10179;42.640;23.312;2023-02-02T03:38:00;93637.34;;;8.49;34.93
20037;BME280;10179;42.640;23.312;2023-02-02T03:40:27;93596.75;;;8.08;34.84
20037;BME280;10179;42.640;23.312;2023-02-02T03:42:53;93617.75;;;8.26;34.35
20037;BME280;10179;42.640;23.312;2023-02-02T03:45:18;93638.69;;;8.58;34.52
20037;BME280;10179;42.640;23.312;2023-02-02T03:47:43;93651.00;;;8.57;34.70
20037;BME280;10179;42.640;23.312;2023-02-02T03:50:09;93652.81;;;8.57;34.89
20037;BME280;10179;42.640;23.312;2023-02-02T03:52:34;93651.19;;;8.56;34.35
20037;BME280;10179;42.640;23.312;2023-02-02T03:55:00;93645.16;;;8.55;33.60
20037;BME280;10179;42.640;23.312;2023-02-02T03:57:25;93657.03;;;8.58;33.96
20037;BME280;10179;42.640;23.312;2023-02-02T03:59:51;93663.28;;;8.57;33.35
20037;BME280;10179;42.640;23.312;2023-02-02T04:02:16;93651.78;;;8.58;33.34
20037;BME280;10179;42.640;23.312;2023-02-02T04:04:42;93654.41;;;8.58;33.37
20037;BME280;10179;42.640;23.312;2023-02-02T04:07:07;93554.78;;;7.89;33.34
20037;BME280;10179;42.640;23.312;2023-02-02T04:09:32;93656.47;;;8.49;33.43
20037;BME280;10179;42.640;23.312;2023-02-02T04:11:58;93668.75;;;8.49;33.85
20037;BME280;10179;42.640;23.312;2023-02-02T04:14:24;93678.34;;;8.62;34.26
20037;BME280;10179;42.640;23.312;2023-02-02T04:16:49;93676.53;;;8.62;34.03
20037;BME280;10179;42.640;23.312;2023-02-02T04:19:15;93680.16;;;8.61;34.02
20037;BME280;10179;42.640;23.312;2023-02-02T04:21:41;93673.38;;;8.53;33.76
20037;BME280;10179;42.640;23.312;2023-02-02T04:24:10;93677.53;;;8.61;33.86
20037;BME280;10179;42.640;23.312;2023-02-02T04:26:35;93677.38;;;8.56;33.79
20037;BME280;10179;42.640;23.312;2023-02-02T04:29:01;93656.16;;;8.39;33.97
20037;BME280;10179;42.640;23.312;2023-02-02T04:31:26;93687.41;;;8.59;34.12
20037;BME280;10179;42.640;23.312;2023-02-02T04:33:54;93684.22;;;8.57;34.14
20037;BME280;10179;42.640;23.312;2023-02-02T04:36:20;93678.19;;;8.56;34.13
20037;BME280;10179;42.640;23.312;2023-02-02T04:38:50;93650.84;;;8.46;34.19
20037;BME280;10179;42.640;23.312;2023-02-02T04:41:16;93658.13;;;8.44;34.22
20037;BME280;10179;42.640;23.312;2023-02-02T04:43:45;93674.59;;;8.51;34.21
20037;BME280;10179;42.640;23.312;2023-02-02T04:46:12;93675.38;;;8.51;34.55
20037;BME280;10179;42.640;23.312;2023-02-02T04:48:37;93584.00;;;7.86;34.20
20037;BME280;10179;42.640;23.312;2023-02-02T04:51:08;93650.75;;;8.27;33.75
20037;BME280;10179;42.640;23.312;2023-02-02T04:53:34;93678.66;;;8.47;33.88
20037;BME280;10179;42.640;23.312;2023-02-02T04:56:13;93688.25;;;8.53;33.58
20037;BME280;10179;42.640;23.312;2023-02-02T04:58:39;93671.44;;;8.35;33.98
20037;BME280;10179;42.640;23.312;2023-02-02T05:01:15;93635.72;;;8.16;34.00
20037;BME280;10179;42.640;23.312;2023-02-02T05:03:41;93671.44;;;8.35;34.05
20037;BME280;10179;42.640;23.312;2023-02-02T05:06:07;93689.53;;;8.44;34.03
20037;BME280;10179;42.640;23.312;2023-02-02T05:08:33;93572.88;;;7.53;33.96
20037;BME280;10179;42.640;23.312;2023-02-02T05:10:58;93682.25;;;8.46;34.11
20037;BME280;10179;42.640;23.312;2023-02-02T05:13:24;93661.78;;;8.36;33.94
20037;BME280;10179;42.640;23.312;2023-02-02T05:15:49;93647.31;;;8.27;34.00
20037;BME280;10179;42.640;23.312;2023-02-02T05:18:15;93690.28;;;8.51;34.04
20037;BME280;10179;42.640;23.312;2023-02-02T05:20:40;93679.81;;;8.51;33.75
20037;BME280;10179;42.640;23.312;2023-02-02T05:23:05;93572.50;;;7.87;33.50
20037;BME280;10179;42.640;23.312;2023-02-02T05:25:31;93679.06;;;8.44;33.74
20037;BME280;10179;42.640;23.312;2023-02-02T05:27:56;93675.75;;;8.55;34.01
20037;BME280;10179;42.640;23.312;2023-02-02T05:30:22;93676.19;;;8.52;34.06
20037;BME280;10179;42.640;23.312;2023-02-02T05:32:48;93679.41;;;8.54;34.41
20037;BME280;10179;42.640;23.312;2023-02-02T05:35:13;93288.78;;;6.02;34.43
20037;BME280;10179;42.640;23.312;2023-02-02T05:37:41;93673.81;;;8.44;34.67
20037;BME280;10179;42.640;23.312;2023-02-02T05:40:07;93682.44;;;8.51;34.65
20037;BME280;10179;42.640;23.312;2023-02-02T05:42:32;93679.03;;;8.50;34.55
20037;BME280;10179;42.640;23.312;2023-02-02T05:44:58;93683.47;;;8.50;34.60
20037;BME280;10179;42.640;23.312;2023-02-02T05:47:23;93681.41;;;8.52;34.61
20037;BME280;10179;42.640;23.312;2023-02-02T05:49:49;93692.50;;;8.54;34.32
20037;BME280;10179;42.640;23.312;2023-02-02T05:52:18;93689.88;;;8.54;34.51
20037;BME280;10179;42.640;23.312;2023-02-02T05:54:46;93685.81;;;8.58;33.94
20037;BME280;10179;42.640;23.312;2023-02-02T05:57:11;93681.56;;;8.64;33.39
20037;BME280;10179;42.640;23.312;2023-02-02T05:59:37;93687.75;;;8.69;33.45
20037;BME280;10179;42.640;23.312;2023-02-02T06:02:02;93638.78;;;8.45;33.61
20037;BME280;10179;42.640;23.312;2023-02-02T06:04:27;93678.22;;;8.81;33.39
20037;BME280;10179;42.640;23.312;2023-02-02T06:06:53;93689.59;;;8.94;33.53
20037;BME280;10179;42.640;23.312;2023-02-02T06:09:18;93690.75;;;8.98;33.39
20037;BME280;10179;42.640;23.312;2023-02-02T06:11:44;93663.50;;;8.80;32.97
20037;BME280;10179;42.640;23.312;2023-02-02T06:14:10;93689.91;;;9.04;32.65
20037;BME280;10179;42.640;23.312;2023-02-02T06:16:35;93701.94;;;9.12;32.39
20037;BME280;10179;42.640;23.312;2023-02-02T06:19:00;93710.13;;;9.22;32.26
20037;BME280;10179;42.640;23.312;2023-02-02T06:21:26;93517.41;;;8.14;32.64
20037;BME280;10179;42.640;23.312;2023-02-02T06:23:55;93722.63;;;9.45;32.47
20037;BME280;10179;42.640;23.312;2023-02-02T06:26:22;93715.03;;;9.37;32.35
20037;BME280;10179;42.640;23.312;2023-02-02T06:28:49;93729.63;;;9.51;32.75
20037;BME280;10179;42.640;23.312;2023-02-02T06:31:15;93726.56;;;9.54;32.65
20037;BME280;10179;42.640;23.312;2023-02-02T06:33:45;93727.72;;;9.58;32.65
20037;BME280;10179;42.640;23.312;2023-02-02T06:36:11;93727.53;;;9.60;32.49
20037;BME280;10179;42.640;23.312;2023-02-02T06:38:36;93732.97;;;9.58;32.87
20037;BME280;10179;42.640;23.312;2023-02-02T06:41:02;93593.09;;;8.72;33.04
20037;BME280;10179;42.640;23.312;2023-02-02T06:43:28;93743.47;;;9.58;32.79
20037;BME280;10179;42.640;23.312;2023-02-02T06:45:56;93579.63;;;8.44;33.03
20037;BME280;10179;42.640;23.312;2023-02-02T06:48:22;93735.59;;;9.58;32.33
20037;BME280;10179;42.640;23.312;2023-02-02T06:50:47;93709.34;;;9.40;32.75
20037;BME280;10179;42.640;23.312;2023-02-02T06:53:12;93710.38;;;9.39;32.96
20037;BME280;10179;42.640;23.312;2023-02-02T06:55:38;93744.06;;;9.60;33.36
20037;BME280;10179;42.640;23.312;2023-02-02T06:58:03;93690.13;;;9.27;32.77
20037;BME280;10179;42.640;23.312;2023-02-02T07:00:29;93616.50;;;8.67;32.97
20037;BME280;10179;42.640;23.312;2023-02-02T07:02:55;93739.25;;;9.57;32.91
20037;BME280;10179;42.640;23.312;2023-02-02T07:05:20;93732.69;;;9.48;32.97
20037;BME280;10179;42.640;23.312;2023-02-02T07:07:48;93751.13;;;9.60;32.96
20037;BME280;10179;42.640;23.312;2023-02-02T07:10:14;93748.50;;;9.60;33.53
20037;BME280;10179;42.640;23.312;2023-02-02T07:12:40;93750.09;;;9.61;33.93
20037;BME280;10179;42.640;23.312;2023-02-02T07:15:06;93719.00;;;9.46;33.93
20037;BME280;10179;42.640;23.312;2023-02-02T07:17:31;93754.13;;;9.63;33.90
20037;BME280;10179;42.640;23.312;2023-02-02T07:19:57;93769.63;;;9.65;33.80
20037;BME280;10179;42.640;23.312;2023-02-02T07:22:22;93734.00;;;9.57;33.73
20037;BME280;10179;42.640;23.312;2023-02-02T07:24:47;93766.81;;;9.66;33.64
20037;BME280;10179;42.640;23.312;2023-02-02T07:27:13;93407.66;;;7.51;33.59
20037;BME280;10179;42.640;23.312;2023-02-02T07:29:38;93751.44;;;9.70;33.60
20037;BME280;10179;42.640;23.312;2023-02-02T07:32:04;93673.72;;;9.14;33.83
20037;BME280;10179;42.640;23.312;2023-02-02T07:34:29;93766.81;;;9.66;34.04
20037;BME280;10179;42.640;23.312;2023-02-02T07:36:56;93767.22;;;9.63;34.31
20037;BME280;10179;42.640;23.312;2023-02-02T07:39:21;93769.84;;;9.63;34.56
20037;BME280;10179;42.640;23.312;2023-02-02T07:41:46;93767.84;;;9.65;34.90
20037;BME280;10179;42.640;23.312;2023-02-02T07:44:13;93748.72;;;9.58;34.69
20037;BME280;10179;42.640;23.312;2023-02-02T07:46:45;93660.69;;;9.25;34.48
20037;BME280;10179;42.640;23.312;2023-02-02T07:49:12;93658.25;;;9.30;34.41
20037;BME280;10179;42.640;23.312;2023-02-02T07:51:38;93744.38;;;9.89;34.18
20037;BME280;10179;42.640;23.312;2023-02-02T07:54:04;93749.19;;;9.92;33.87
20037;BME280;10179;42.640;23.312;2023-02-02T07:56:30;93735.66;;;9.95;33.64
20037;BME280;10179;42.640;23.312;2023-02-02T07:58:55;93726.56;;;9.97;33.76
20037;BME280;10179;42.640;23.312;2023-02-02T08:01:22;93726.13;;;10.00;34.11
20037;BME280;10179;42.640;23.312;2023-02-02T08:03:50;93728.28;;;10.03;34.24
20037;BME280;10179;42.640;23.312;2023-02-02T08:06:22;93700.50;;;9.96;34.08
20037;BME280;10179;42.640;23.312;2023-02-02T08:08:48;93711.81;;;10.15;34.13
20037;BME280;10179;42.640;23.312;2023-02-02T08:11:16;93723.44;;;10.25;34.15
20037;BME280;10179;42.640;23.312;2023-02-02T08:13:43;93716.31;;;10.44;34.46
20037;BME280;10179;42.640;23.312;2023-02-02T08:16:09;93703.84;;;10.70;34.40
20037;BME280;10179;42.640;23.312;2023-02-02T08:18:35;93710.66;;;11.01;34.09
20037;BME280;10179;42.640;23.312;2023-02-02T08:21:03;93701.22;;;11.23;33.35
20037;BME280;10179;42.640;23.312;2023-02-02T08:23:29;93709.94;;;11.59;32.91
20037;BME280;10179;42.640;23.312;2023-02-02T08:26:14;93657.09;;;11.49;32.52
20037;BME280;10179;42.640;23.312;2023-02-02T08:28:40;93699.53;;;11.88;32.36
20037;BME280;10179;42.640;23.312;2023-02-02T08:31:27;93695.63;;;12.02;32.14
20037;BME280;10179;42.640;23.312;2023-02-02T08:33:53;93583.72;;;11.24;32.23
20037;BME280;10179;42.640;23.312;2023-02-02T08:36:21;93694.28;;;11.88;32.15
20037;BME280;10179;42.640;23.312;2023-02-02T08:38:47;93701.47;;;11.81;32.59
20037;BME280;10179;42.640;23.312;2023-02-02T08:41:15;93711.84;;;11.76;32.66
20037;BME280;10179;42.640;23.312;2023-02-02T08:43:42;93708.66;;;11.74;32.69
20037;BME280;10179;42.640;23.312;2023-02-02T08:46:09;93710.72;;;11.71;32.77
20037;BME280;10179;42.640;23.312;2023-02-02T08:48:35;93700.66;;;11.68;33.00
20037;BME280;10179;42.640;23.312;2023-02-02T08:51:02;93703.53;;;11.55;34.16
20037;BME280;10179;42.640;23.312;2023-02-02T08:53:29;93705.25;;;11.38;34.46
20037;BME280;10179;42.640;23.312;2023-02-02T08:56:04;93685.53;;;11.05;34.99
20037;BME280;10179;42.640;23.312;2023-02-02T08:58:31;93695.22;;;10.93;35.41
20037;BME280;10179;42.640;23.312;2023-02-02T09:01:13;93704.19;;;10.73;36.04
20037;BME280;10179;42.640;23.312;2023-02-02T09:03:39;93670.75;;;10.20;36.22
20037;BME280;10179;42.640;23.312;2023-02-02T09:06:08;93719.34;;;10.30;36.43
20037;BME280;10179;42.640;23.312;2023-02-02T09:08:33;93679.59;;;10.08;36.89
20037;BME280;10179;42.640;23.312;2023-02-02T09:11:07;93705.91;;;10.19;36.78
20037;BME280;10179;42.640;23.312;2023-02-02T09:13:33;93642.34;;;9.69;36.91
20037;BME280;10179;42.640;23.312;2023-02-02T09:16:01;93601.47;;;9.43;37.12
20037;BME280;10179;42.640;23.312;2023-02-02T09:18:27;93634.22;;;9.70;37.05
20037;BME280;10179;42.640;23.312;2023-02-02T09:20:53;93699.63;;;10.20;37.29
20037;BME280;10179;42.640;23.312;2023-02-02T09:23:18;93704.44;;;10.23;37.43
20037;BME280;10179;42.640;23.312;2023-02-02T09:25:44;93569.56;;;9.46;37.49
20037;BME280;10179;42.640;23.312;2023-02-02T09:28:09;93622.03;;;9.94;37.26
20037;BME280;10179;42.640;23.312;2023-02-02T09:30:34;93665.69;;;10.25;37.24
20037;BME280;10179;42.640;23.312;2023-02-02T09:33:00;93695.56;;;10.43;37.53
20037;BME280;10179;42.640;23.312;2023-02-02T09:35:25;93676.19;;;10.25;37.68
20037;BME280;10179;42.640;23.312;2023-02-02T09:37:51;93690.22;;;10.31;37.43
20037;BME280;10179;42.640;23.312;2023-02-02T09:40:17;93678.38;;;10.70;36.27
20037;BME280;10179;42.640;23.312;2023-02-02T09:45:53;93652.19;;;11.17;34.62
20037;BME280;10179;42.640;23.312;2023-02-02T09:50:54;93670.25;;;11.73;33.70
20037;BME280;10179;42.640;23.312;2023-02-02T09:55:59;93654.88;;;12.05;32.61
20037;BME280;10179;42.640;23.312;2023-02-02T09:58:41;93640.03;;;12.27;32.47
20037;BME280;10179;42.640;23.312;2023-02-02T10:01:17;93645.47;;;12.37;32.12
20037;BME280;10179;42.640;23.312;2023-02-02T10:06:46;93636.09;;;12.58;31.96
20037;BME280;10179;42.640;23.312;2023-02-02T10:14:48;93547.47;;;12.18;31.44
20037;BME280;10179;42.640;23.312;2023-02-02T10:19:47;93619.44;;;12.70;31.40
20037;BME280;10179;42.640;23.312;2023-02-02T10:22:18;93604.03;;;12.61;31.09
20037;BME280;10179;42.640;23.312;2023-02-02T10:24:45;93623.38;;;12.67;31.09
20037;BME280;10179;42.640;23.312;2023-02-02T10:27:14;93605.59;;;12.62;31.35
20037;BME280;10179;42.640;23.312;2023-02-02T10:29:59;93611.69;;;12.80;31.30
20037;BME280;10179;42.640;23.312;2023-02-02T10:32:28;93580.22;;;12.56;31.38
20037;BME280;10179;42.640;23.312;2023-02-02T10:37:33;93607.22;;;12.80;31.36
20037;BME280;10179;42.640;23.312;2023-02-02T10:40:35;93587.25;;;12.84;31.42
20037;BME280;10179;42.640;23.312;2023-02-02T10:48:40;93566.66;;;12.64;31.83
20037;BME280;10179;42.640;23.312;2023-02-02T10:51:25;93545.25;;;12.44;31.67
20037;BME280;10179;42.640;23.312;2023-02-02T10:53:53;93573.44;;;12.60;31.26
20037;BME280;10179;42.640;23.312;2023-02-02T10:56:25;93546.53;;;12.58;31.59
20037;BME280;10179;42.640;23.312;2023-02-02T10:59:04;93540.69;;;12.56;31.84
20037;BME280;10179;42.640;23.312;2023-02-02T11:01:30;93471.97;;;12.07;31.72
20037;BME280;10179;42.640;23.312;2023-02-02T11:03:56;93409.88;;;11.78;31.60
20037;BME280;10179;42.640;23.312;2023-02-02T11:06:48;93490.09;;;12.21;31.30
20037;BME280;10179;42.640;23.312;2023-02-02T11:09:15;93553.53;;;12.53;31.56
20037;BME280;10179;42.640;23.312;2023-02-02T11:11:42;93492.72;;;12.21;31.60
20037;BME280;10179;42.640;23.312;2023-02-02T11:15:03;93539.09;;;12.55;31.25
20037;BME280;10179;42.640;23.312;2023-02-02T11:17:04;93546.69;;;12.52;31.24
20037;BME280;10179;42.640;23.312;2023-02-02T11:19:32;93505.97;;;12.26;31.40
20037;BME280;10179;42.640;23.312;2023-02-02T11:22:01;93527.72;;;12.50;31.28
20037;BME280;10179;42.640;23.312;2023-02-02T11:24:39;93416.72;;;11.79;31.16
20037;BME280;10179;42.640;23.312;2023-02-02T11:32:44;93505.41;;;12.40;31.25
20037;BME280;10179;42.640;23.312;2023-02-02T11:35:23;93498.31;;;12.41;31.29
20037;BME280;10179;42.640;23.312;2023-02-02T11:40:36;93509.50;;;12.48;31.11
20037;BME280;10179;42.640;23.312;2023-02-02T11:43:20;93446.31;;;12.14;30.85
20037;BME280;10179;42.640;23.312;2023-02-02T11:45:54;93483.16;;;12.48;31.20
20037;BME280;10179;42.640;23.312;2023-02-02T11:48:26;93499.44;;;12.45;30.77
20037;BME280;10179;42.640;23.312;2023-02-02T11:50:54;93496.25;;;12.43;30.78
20037;BME280;10179;42.640;23.312;2023-02-02T11:53:29;93494.63;;;12.42;31.02
20037;BME280;10179;42.640;23.312;2023-02-02T11:55:57;93492.56;;;12.44;31.23
20037;BME280;10179;42.640;23.312;2023-02-02T11:58:29;93380.22;;;11.65;30.91
20037;BME280;10179;42.640;23.312;2023-02-02T12:03:49;93441.16;;;12.25;30.76
20037;BME280;10179;42.640;23.312;2023-02-02T12:06:21;93468.88;;;12.44;30.70
20037;BME280;10179;42.640;23.312;2023-02-02T12:08:46;93484.25;;;12.52;30.84
20037;BME280;10179;42.640;23.312;2023-02-02T12:20:01;93485.31;;;12.51;31.18
20037;BME280;10179;42.640;23.312;2023-02-02T12:33:53;93491.94;;;12.71;30.33
20037;BME280;10179;42.640;23.312;2023-02-02T12:39:27;93494.00;;;12.69;29.73
20037;BME280;10179;42.640;23.312;2023-02-02T12:45:10;93486.34;;;12.67;30.00
20037;BME280;10179;42.640;23.312;2023-02-02T12:50:26;93492.25;;;12.57;29.78
20037;BME280;10179;42.640;23.312;2023-02-02T12:53:34;93490.16;;;12.59;29.83
20037;BME280;10179;42.640;23.312;2023-02-02T12:56:25;93404.03;;;12.04;30.04
20037;BME280;10179;42.640;23.312;2023-02-02T13:04:31;93148.50;;;9.51;30.33
20037;BME280;10179;42.640;23.312;2023-02-02T13:09:59;93495.47;;;12.43;30.63
20037;BME280;10179;42.640;23.312;2023-02-02T13:12:27;93482.81;;;12.28;30.54
20037;BME280;10179;42.640;23.312;2023-02-02T13:14:56;93399.75;;;11.69;30.86
20037;BME280;10179;42.640;23.312;2023-02-02T13:17:35;93478.19;;;12.35;30.88
20037;BME280;10179;42.640;23.312;2023-02-02T13:20:06;93502.63;;;12.47;30.85
20037;BME280;10179;42.640;23.312;2023-02-02T13:22:41;93493.22;;;12.51;30.60
20037;BME280;10179;42.640;23.312;2023-02-02T13:25:17;93442.47;;;12.22;30.55
20037;BME280;10179;42.640;23.312;2023-02-02T13:27:44;93477.88;;;12.48;30.57
20037;BME280;10179;42.640;23.312;2023-02-02T13:30:27;93485.78;;;12.48;30.34
20037;BME280;10179;42.640;23.312;2023-02-02T13:33:38;93497.38;;;12.47;30.23
20037;BME280;10179;42.640;23.312;2023-02-02T13:35:51;93335.38;;;11.43;30.07
20037;BME280;10179;42.640;23.312;2023-02-02T13:38:23;93482.81;;;12.28;30.21
20037;BME280;10179;42.640;23.312;2023-02-02T13:40:52;93493.19;;;12.34;29.97
20037;BME280;10179;42.640;23.312;2023-02-02T13:51:56;93169.69;;;10.02;30.75
20037;BME280;10179;42.640;23.312;2023-02-02T14:07:47;93473.78;;;11.90;34.12
20037;BME280;10179;42.640;23.312;2023-02-02T14:12:53;93467.28;;;11.81;35.22
20037;BME280;10179;42.640;23.312;2023-02-02T14:15:38;93143.19;;;9.87;35.31
20037;BME280;10179;42.640;23.312;2023-02-02T14:18:05;93439.47;;;11.56;35.76
20037;BME280;10179;42.640;23.312;2023-02-02T14:20:47;93466.78;;;11.67;36.20
20037;BME280;10179;42.640;23.312;2023-02-02T14:23:50;93453.22;;;11.58;35.85
20037;BME280;10179;42.640;23.312;2023-02-02T14:26:18;93459.22;;;11.42;35.72
20037;BME280;10179;42.640;23.312;2023-02-02T14:28:47;93460.72;;;11.38;35.78
20037;BME280;10179;42.640;23.312;2023-02-02T14:33:42;93432.78;;;11.08;36.07
20037;BME280;10179;42.640;23.312;2023-02-02T14:36:13;93460.41;;;11.22;36.38
20037;BME280;10179;42.640;23.312;2023-02-02T14:41:44;93507.50;;;11.12;36.90
20037;BME280;10179;42.640;23.312;2023-02-02T14:44:24;93527.41;;;10.96;37.77
20037;BME280;10179;42.640;23.312;2023-02-02T14:46:50;93552.09;;;10.84;38.62
20037;BME280;10179;42.640;23.312;2023-02-02T14:49:17;93558.94;;;10.61;41.36
20037;BME280;10179;42.640;23.312;2023-02-02T14:51:48;93594.25;;;10.35;42.33
20037;BME280;10179;42.640;23.312;2023-02-02T14:54:27;93454.72;;;9.24;44.39
20037;BME280;10179;42.640;23.312;2023-02-02T14:56:57;93605.31;;;9.77;46.62
20037;BME280;10179;42.640;23.312;2023-02-02T14:59:37;93622.22;;;9.44;48.60
20037;BME280;10179;42.640;23.312;2023-02-02T15:02:17;93617.00;;;9.01;49.82
20037;BME280;10179;42.640;23.312;2023-02-02T15:04:43;93640.09;;;8.86;50.81
20037;BME280;10179;42.640;23.312;2023-02-02T15:07:35;93678.47;;;8.73;51.67
20037;BME280;10179;42.640;23.312;2023-02-02T15:10:02;93684.94;;;8.32;51.78
20037;BME280;10179;42.640;23.312;2023-02-02T15:12:34;93689.72;;;8.04;52.34
20037;BME280;10179;42.640;23.312;2023-02-02T15:17:50;93692.69;;;7.56;54.28
20037;BME280;10179;42.640;23.312;2023-02-02T15:20:35;93708.78;;;7.33;54.74
20037;BME280;10179;42.640;23.312;2023-02-02T15:25:40;93627.28;;;6.31;56.31